Time;durP1;ratioP1;P1;durP2;ratioP2;P2;SDS_P1;SDS_P2;PMS_P1;PMS_P2;Temp;Humidity;BMP_temperature;BMP_pressure;BME280_temperature;BME280_humidity;BME280_pressure;Samples;Min_cycle;Max_cycle;Signal;HPM_P1;HPM_P2
2024/03/04 00:02:12;;;;;;;28.50;25.37;;;;;;;;;;4952627;28;20235;-77
2024/03/04 00:04:37;;;;;;;29.40;25.87;;;;;;;;;;4976305;28;20229;-77
2024/03/04 00:07:06;;;;;;;29.30;26.10;;;;;;;;;;4972241;28;20246;-77
2024/03/04 00:09:34;;;;;;;27.17;24.27;;;;;;;;;;4938379;28;20238;-77
2024/03/04 00:12:05;;;;;;;28.83;25.60;;;;;;;;;;4986034;28;20599;-77
2024/03/04 00:14:31;;;;;;;29.90;25.77;;;;;;;;;;4962188;28;20229;-77
2024/03/04 00:16:57;;;;;;;29.97;25.23;;;;;;;;;;4963301;28;20777;-77
2024/03/04 00:19:27;;;;;;;28.63;24.50;;;;;;;;;;4925006;28;20248;-77
2024/03/04 00:21:52;;;;;;;28.70;25.37;;;;;;;;;;4971906;28;20230;-76
2024/03/04 00:24:20;;;;;;;28.27;25.23;;;;;;;;;;4972194;28;20214;-77
2024/03/04 00:26:47;;;;;;;30.97;25.77;;;;;;;;;;4962214;28;20277;-77
2024/03/04 00:29:17;;;;;;;28.10;25.17;;;;;;;;;;4975964;28;20222;-76
2024/03/04 00:31:48;;;;;;;30.87;25.83;;;;;;;;;;4958511;28;20226;-76
2024/03/04 00:34:13;;;;;;;27.17;23.63;;;;;;;;;;4964184;28;20872;-77
2024/03/04 00:36:41;;;;;;;29.07;24.67;;;;;;;;;;4969831;28;20247;-78
2024/03/04 00:39:09;;;;;;;30.33;24.63;;;;;;;;;;4982221;28;20234;-76
2024/03/04 00:41:35;;;;;;;27.50;24.47;;;;;;;;;;4957875;28;20230;-77
2024/03/04 00:44:00;;;;;;;28.87;24.97;;;;;;;;;;4965892;28;20230;-77
2024/03/04 00:46:26;;;;;;;28.37;23.67;;;;;;;;;;4964662;28;20235;-77
2024/03/04 00:48:58;;;;;;;28.73;24.70;;;;;;;;;;4971154;28;20232;-76
2024/03/04 00:51:29;;;;;;;29.87;24.43;;;;;;;;;;4965319;28;20217;-77
2024/03/04 00:53:55;;;;;;;29.00;25.60;;;;;;;;;;4966930;28;20749;-76
2024/03/04 00:56:21;;;;;;;31.87;26.60;;;;;;;;;;4968143;28;20246;-77
2024/03/04 00:58:49;;;;;;;32.17;26.70;;;;;;;;;;4968331;28;20648;-78
2024/03/04 01:01:16;;;;;;;33.07;27.30;;;;;;;;;;4964639;28;20218;-77
2024/03/04 01:03:44;;;;;;;31.80;27.03;;;;;;;;;;4966395;28;20268;-77
2024/03/04 01:06:12;;;;;;;33.90;27.53;;;;;;;;;;4948033;28;20229;-77
2024/03/04 01:08:43;;;;;;;34.30;28.13;;;;;;;;;;4960975;28;20230;-77
2024/03/04 01:11:08;;;;;;;33.83;28.07;;;;;;;;;;4960029;28;20320;-78
2024/03/04 01:13:37;;;;;;;32.87;28.80;;;;;;;;;;4961610;28;20253;-77
2024/03/04 01:16:07;;;;;;;37.47;30.03;;;;;;;;;;4958946;28;20233;-78
2024/03/04 01:18:36;;;;;;;37.97;30.67;;;;;;;;;;4968927;28;20234;-78
2024/03/04 01:21:06;;;;;;;38.20;30.93;;;;;;;;;;4963736;28;20234;-77
2024/03/04 01:23:32;;;;;;;39.67;31.63;;;;;;;;;;4977937;28;20301;-77
2024/03/04 01:25:58;;;;;;;37.10;30.70;;;;;;;;;;4958226;28;20222;-77
2024/03/04 01:28:26;;;;;;;42.10;32.53;;;;;;;;;;4965432;28;20241;-78
2024/03/04 01:30:55;;;;;;;37.47;31.20;;;;;;;;;;4963802;28;20289;-77
2024/03/04 01:33:25;;;;;;;42.33;31.37;;;;;;;;;;4964743;28;20277;-76
2024/03/04 01:35:51;;;;;;;37.97;30.90;;;;;;;;;;4978469;28;20265;-77
2024/03/04 01:38:16;;;;;;;38.67;32.17;;;;;;;;;;4968678;28;20261;-78
2024/03/04 01:40:42;;;;;;;40.73;31.47;;;;;;;;;;4950609;28;20239;-78
2024/03/04 01:43:08;;;;;;;40.43;32.23;;;;;;;;;;4966245;28;20234;-78
2024/03/04 01:45:36;;;;;;;44.30;33.33;;;;;;;;;;4967775;28;20512;-78
2024/03/04 01:48:07;;;;;;;42.20;33.03;;;;;;;;;;4947370;28;20317;-78
2024/03/04 01:50:36;;;;;;;40.73;33.70;;;;;;;;;;4954783;28;20227;-78
2024/03/04 01:53:06;;;;;;;43.33;34.20;;;;;;;;;;4968913;28;20233;-78
2024/03/04 01:55:41;;;;;;;46.80;34.70;;;;;;;;;;4962172;28;20238;-78
2024/03/04 01:58:09;;;;;;;47.00;36.70;;;;;;;;;;4993661;28;20264;-78
2024/03/04 02:00:39;;;;;;;44.80;34.97;;;;;;;;;;4947939;28;20225;-77
2024/03/04 02:03:06;;;;;;;54.60;39.97;;;;;;;;;;4963206;28;20236;-77
2024/03/04 02:05:31;;;;;;;47.93;36.07;;;;;;;;;;4951939;28;20253;-77
2024/03/04 02:07:57;;;;;;;51.47;38.43;;;;;;;;;;4959470;28;20225;-78
2024/03/04 02:10:22;;;;;;;54.13;41.17;;;;;;;;;;5000946;28;20307;-77
2024/03/04 02:12:53;;;;;;;48.37;36.00;;;;;;;;;;4972105;28;20225;-77
2024/03/04 02:15:21;;;;;;;52.10;38.93;;;;;;;;;;4928255;28;20227;-78
2024/03/04 02:17:46;;;;;;;59.03;42.10;;;;;;;;;;4953797;28;20313;-77
2024/03/04 02:20:15;;;;;;;54.43;40.57;;;;;;;;;;4977470;28;20236;-77
2024/03/04 02:22:43;;;;;;;52.10;38.53;;;;;;;;;;4968894;28;20682;-77
2024/03/04 02:25:11;;;;;;;53.33;39.43;;;;;;;;;;4967978;28;20289;-77
2024/03/04 02:27:42;;;;;;;63.13;43.57;;;;;;;;;;4964806;28;20245;-77
2024/03/04 02:30:10;;;;;;;60.03;43.20;;;;;;;;;;4943881;28;20634;-77
2024/03/04 02:32:35;;;;;;;62.63;43.37;;;;;;;;;;4965369;28;20222;-76
2024/03/04 02:35:07;;;;;;;58.13;41.93;;;;;;;;;;4965347;28;20242;-78
2024/03/04 02:37:36;;;;;;;54.23;41.80;;;;;;;;;;4944785;28;20237;-77
2024/03/04 02:40:06;;;;;;;55.50;38.93;;;;;;;;;;4944056;28;20233;-77
2024/03/04 02:42:32;;;;;;;55.67;39.90;;;;;;;;;;4964203;28;20249;-77
2024/03/04 02:44:58;;;;;;;60.20;42.43;;;;;;;;;;4946019;28;20235;-78
2024/03/04 02:47:23;;;;;;;54.37;40.50;;;;;;;;;;4948377;28;20286;-77
2024/03/04 02:49:53;;;;;;;54.40;38.97;;;;;;;;;;4949828;28;20234;-77
2024/03/04 02:52:19;;;;;;;56.83;40.33;;;;;;;;;;4951094;28;20732;-78
2024/03/04 02:54:49;;;;;;;53.27;39.93;;;;;;;;;;4979545;28;20218;-77
2024/03/04 02:57:17;;;;;;;54.80;39.80;;;;;;;;;;4983485;28;20298;-77
2024/03/04 02:59:46;;;;;;;52.30;39.13;;;;;;;;;;4984949;28;20239;-77
2024/03/04 03:02:15;;;;;;;57.70;40.53;;;;;;;;;;4966912;28;20380;-78
2024/03/04 03:04:43;;;;;;;57.20;40.57;;;;;;;;;;4973401;28;20313;-77
2024/03/04 03:07:08;;;;;;;58.90;41.47;;;;;;;;;;4950376;28;20650;-77
2024/03/04 03:09:34;;;;;;;52.40;39.80;;;;;;;;;;4949725;28;20255;-78
2024/03/04 03:11:59;;;;;;;55.13;39.27;;;;;;;;;;4954795;28;20229;-78
2024/03/04 03:14:25;;;;;;;53.33;38.40;;;;;;;;;;4969227;28;20238;-76
2024/03/04 03:16:53;;;;;;;50.57;35.93;;;;;;;;;;4967527;28;20724;-77
2024/03/04 03:19:25;;;;;;;45.07;33.93;;;;;;;;;;4959584;28;20237;-77
2024/03/04 03:21:53;;;;;;;45.40;34.60;;;;;;;;;;4939187;28;20230;-77
2024/03/04 03:24:24;;;;;;;45.93;35.90;;;;;;;;;;4964862;28;20222;-77
2024/03/04 03:26:51;;;;;;;49.67;36.87;;;;;;;;;;4968495;28;20235;-77
2024/03/04 03:29:17;;;;;;;55.13;39.60;;;;;;;;;;4967033;28;20268;-78
2024/03/04 03:31:45;;;;;;;53.30;39.30;;;;;;;;;;4966345;28;20245;-77
2024/03/04 03:34:12;;;;;;;59.43;40.70;;;;;;;;;;4969789;28;20226;-78
2024/03/04 03:36:43;;;;;;;67.80;45.47;;;;;;;;;;4971362;28;20578;-77
2024/03/04 03:39:12;;;;;;;74.60;48.10;;;;;;;;;;4975749;28;20238;-76
2024/03/04 03:41:43;;;;;;;79.10;51.60;;;;;;;;;;4973165;28;20210;-78
2024/03/04 03:44:08;;;;;;;89.70;52.07;;;;;;;;;;4950904;28;20226;-77
2024/03/04 03:46:36;;;;;;;84.63;54.00;;;;;;;;;;4968253;28;20235;-77
2024/03/04 03:49:04;;;;;;;73.10;47.80;;;;;;;;;;4968989;28;20289;-76
2024/03/04 03:51:32;;;;;;;72.57;47.80;;;;;;;;;;4959854;28;20226;-78
2024/03/04 03:53:58;;;;;;;69.33;46.23;;;;;;;;;;4966416;28;20230;-78
2024/03/04 03:56:24;;;;;;;71.87;48.03;;;;;;;;;;4945073;28;20839;-78
2024/03/04 04:02:36;;;;;;;67.53;43.97;;;;;;;;;;4961335;28;20289;-77
2024/03/04 04:05:02;;;;;;;73.10;46.23;;;;;;;;;;4965502;28;20234;-78
2024/03/04 04:07:28;;;;;;;73.50;48.37;;;;;;;;;;4945611;28;20269;-77
2024/03/04 04:09:53;;;;;;;77.47;50.13;;;;;;;;;;4946971;28;20230;-78
2024/03/04 04:12:21;;;;;;;83.83;51.37;;;;;;;;;;4959196;28;20783;-76
2024/03/04 04:14:49;;;;;;;80.90;49.60;;;;;;;;;;4942769;28;20222;-77
2024/03/04 04:17:16;;;;;;;81.17;51.17;;;;;;;;;;4961845;28;20240;-79
2024/03/04 04:19:44;;;;;;;86.93;53.03;;;;;;;;;;4976104;28;20250;-77
2024/03/04 04:22:14;;;;;;;79.27;50.60;;;;;;;;;;4942462;28;20242;-77
2024/03/04 04:24:42;;;;;;;79.83;49.50;;;;;;;;;;4957617;28;20229;-77
2024/03/04 04:27:08;;;;;;;87.20;50.93;;;;;;;;;;4963189;28;20230;-80
2024/03/04 04:29:33;;;;;;;89.60;50.73;;;;;;;;;;4970614;28;20226;-77
2024/03/04 04:31:59;;;;;;;85.53;50.53;;;;;;;;;;4951643;28;20209;-78
2024/03/04 04:34:25;;;;;;;81.07;50.83;;;;;;;;;;4964526;23;20241;-87
2024/03/04 04:36:58;;;;;;;88.20;53.33;;;;;;;;;;4983274;28;20229;-86
2024/03/04 04:39:36;;;;;;;88.63;53.83;;;;;;;;;;4967020;28;20762;-83
2024/03/04 04:42:10;;;;;;;85.67;53.43;;;;;;;;;;4946010;28;20246;-88
2024/03/04 04:44:38;;;;;;;95.67;56.00;;;;;;;;;;4963263;28;20252;-86
2024/03/04 04:47:07;;;;;;;92.37;53.53;;;;;;;;;;4963415;28;20236;-85
2024/03/04 04:49:35;;;;;;;93.53;54.63;;;;;;;;;;4970820;28;20246;-79
2024/03/04 04:52:00;;;;;;;82.63;51.13;;;;;;;;;;4989274;28;20283;-79
2024/03/04 04:54:26;;;;;;;83.43;50.87;;;;;;;;;;5003396;28;20209;-79
2024/03/04 04:56:54;;;;;;;81.27;51.10;;;;;;;;;;4956099;28;20229;-79
2024/03/04 04:59:19;;;;;;;86.17;51.10;;;;;;;;;;4940753;28;20233;-78
2024/03/04 05:01:45;;;;;;;87.87;52.67;;;;;;;;;;4988975;28;20217;-78
2024/03/04 05:04:11;;;;;;;94.17;54.50;;;;;;;;;;4983281;28;20248;-78
2024/03/04 05:06:41;;;;;;;93.33;55.30;;;;;;;;;;4977257;28;20240;-77
2024/03/04 05:09:08;;;;;;;94.07;53.20;;;;;;;;;;4974430;28;20222;-79
2024/03/04 05:11:35;;;;;;;97.97;54.67;;;;;;;;;;4973987;28;20263;-78
2024/03/04 05:14:03;;;;;;;108.10;56.37;;;;;;;;;;4962426;28;20749;-78
2024/03/04 05:16:29;;;;;;;131.20;59.13;;;;;;;;;;4993542;28;20260;-78
2024/03/04 05:18:56;;;;;;;139.33;58.83;;;;;;;;;;4975784;28;20264;-77
2024/03/04 05:21:22;;;;;;;111.53;59.20;;;;;;;;;;4989586;28;20214;-78
2024/03/04 05:23:48;;;;;;;133.37;61.63;;;;;;;;;;4959367;28;20275;-79
2024/03/04 05:26:13;;;;;;;126.03;61.53;;;;;;;;;;4957160;28;20218;-79
2024/03/04 05:28:39;;;;;;;142.00;63.73;;;;;;;;;;4957730;28;20227;-78
2024/03/04 05:31:04;;;;;;;123.33;60.77;;;;;;;;;;4991081;28;20236;-79
2024/03/04 05:33:30;;;;;;;141.70;63.07;;;;;;;;;;4945275;28;20228;-79
2024/03/04 05:35:55;;;;;;;153.37;62.00;;;;;;;;;;4974976;28;20221;-77
2024/03/04 05:38:23;;;;;;;150.20;60.67;;;;;;;;;;4988214;28;20254;-78
2024/03/04 05:40:49;;;;;;;159.10;59.67;;;;;;;;;;4974916;28;20734;-78
2024/03/04 05:43:15;;;;;;;167.93;59.47;;;;;;;;;;4974885;28;20229;-76
2024/03/04 05:45:40;;;;;;;247.87;62.50;;;;;;;;;;4974240;28;20926;-79
2024/03/04 05:48:10;;;;;;;266.40;60.87;;;;;;;;;;4957730;28;20240;-81
2024/03/04 05:50:37;;;;;;;209.70;57.87;;;;;;;;;;4992477;28;20229;-79
2024/03/04 05:53:05;;;;;;;190.87;58.37;;;;;;;;;;4992950;28;20240;-79
2024/03/04 05:55:33;;;;;;;185.30;59.90;;;;;;;;;;5005314;28;20237;-78
2024/03/04 05:57:58;;;;;;;300.40;60.70;;;;;;;;;;4975765;28;20653;-79
2024/03/04 06:00:30;;;;;;;190.20;57.17;;;;;;;;;;4963670;28;20213;-78
2024/03/04 06:02:56;;;;;;;199.00;55.13;;;;;;;;;;4971963;28;20232;-80
2024/03/04 06:05:21;;;;;;;211.10;58.23;;;;;;;;;;4991040;28;20213;-79
2024/03/04 06:07:56;;;;;;;219.20;58.80;;;;;;;;;;4991030;28;20300;-79
2024/03/04 06:10:28;;;;;;;229.60;56.07;;;;;;;;;;5000380;28;20653;-78
2024/03/04 06:12:54;;;;;;;182.83;57.90;;;;;;;;;;4990695;28;20222;-77
2024/03/04 06:15:21;;;;;;;172.00;60.77;;;;;;;;;;4956188;28;20221;-79
2024/03/04 06:17:46;;;;;;;158.67;59.70;;;;;;;;;;4958085;28;20589;-78
2024/03/04 06:20:15;;;;;;;181.27;60.00;;;;;;;;;;4974007;28;20297;-79
2024/03/04 06:22:42;;;;;;;146.23;57.70;;;;;;;;;;4974288;28;20316;-79
2024/03/04 06:25:10;;;;;;;161.77;59.73;;;;;;;;;;4958149;28;20224;-79
2024/03/04 06:27:36;;;;;;;201.07;60.90;;;;;;;;;;4961012;28;20228;-80
2024/03/04 06:30:02;;;;;;;123.07;59.13;;;;;;;;;;4972697;28;20217;-77
2024/03/04 06:32:30;;;;;;;115.27;60.67;;;;;;;;;;4995316;28;20225;-79
2024/03/04 06:34:57;;;;;;;104.97;58.13;;;;;;;;;;4980965;28;20714;-81
2024/03/04 06:37:23;;;;;;;108.10;57.70;;;;;;;;;;4997729;28;20245;-79
2024/03/04 06:39:48;;;;;;;108.90;60.23;;;;;;;;;;4977507;28;20221;-79
2024/03/04 06:42:14;;;;;;;105.53;59.67;;;;;;;;;;4990738;28;20229;-80
2024/03/04 06:44:42;;;;;;;105.30;59.43;;;;;;;;;;4976603;28;20222;-78
2024/03/04 06:47:07;;;;;;;130.03;60.17;;;;;;;;;;4994611;28;20221;-79
2024/03/04 06:49:33;;;;;;;107.70;60.90;;;;;;;;;;4960787;28;20224;-81
2024/03/04 06:51:59;;;;;;;113.57;60.50;;;;;;;;;;4962024;28;20221;-80
2024/03/04 06:54:24;;;;;;;99.13;58.97;;;;;;;;;;4993038;28;20218;-78
2024/03/04 06:56:50;;;;;;;108.87;58.53;;;;;;;;;;4978481;28;20706;-80
2024/03/04 06:59:15;;;;;;;125.90;62.97;;;;;;;;;;4977626;28;20316;-78
2024/03/04 07:01:41;;;;;;;106.20;60.30;;;;;;;;;;4977869;28;20227;-79
2024/03/04 07:04:07;;;;;;;106.83;58.43;;;;;;;;;;4993962;28;20248;-78
2024/03/04 07:06:33;;;;;;;100.60;57.97;;;;;;;;;;4975727;28;20311;-77
2024/03/04 07:08:58;;;;;;;97.43;57.40;;;;;;;;;;4992398;28;20706;-79
2024/03/04 07:11:27;;;;;;;137.50;58.57;;;;;;;;;;4970835;28;20221;-79
2024/03/04 07:13:53;;;;;;;98.37;57.10;;;;;;;;;;4994277;28;20698;-80
2024/03/04 07:16:21;;;;;;;121.80;59.20;;;;;;;;;;4990592;28;20329;-80
2024/03/04 07:18:47;;;;;;;120.43;58.13;;;;;;;;;;4978542;28;20220;-80
2024/03/04 07:21:15;;;;;;;99.63;57.73;;;;;;;;;;4978168;28;20218;-80
2024/03/04 07:23:41;;;;;;;119.60;57.93;;;;;;;;;;4973113;28;20233;-80
2024/03/04 07:26:07;;;;;;;147.33;57.27;;;;;;;;;;4991775;28;20221;-80
2024/03/04 07:28:32;;;;;;;117.20;55.33;;;;;;;;;;4977152;28;20256;-78
2024/03/04 07:30:58;;;;;;;110.40;55.13;;;;;;;;;;5000372;28;20240;-80
2024/03/04 07:33:24;;;;;;;88.33;55.43;;;;;;;;;;4994519;28;20285;-80
2024/03/04 07:35:49;;;;;;;127.60;57.83;;;;;;;;;;4977596;28;20256;-79
2024/03/04 07:38:18;;;;;;;86.90;55.50;;;;;;;;;;4961408;28;20312;-80
2024/03/04 07:40:44;;;;;;;135.33;56.97;;;;;;;;;;4976918;28;20225;-80
2024/03/04 07:43:09;;;;;;;85.27;53.90;;;;;;;;;;4977294;28;20658;-79
2024/03/04 07:45:35;;;;;;;76.73;53.23;;;;;;;;;;4987704;28;20802;-80
2024/03/04 07:48:00;;;;;;;84.30;54.17;;;;;;;;;;4979679;28;20214;-78
2024/03/04 07:50:31;;;;;;;74.10;52.50;;;;;;;;;;5007135;28;20323;-78
2024/03/04 07:52:57;;;;;;;77.23;52.20;;;;;;;;;;4999019;28;20225;-78
2024/03/04 07:55:22;;;;;;;71.07;53.47;;;;;;;;;;5006791;28;20534;-79
2024/03/04 07:57:53;;;;;;;66.37;50.10;;;;;;;;;;4990469;28;20225;-79
2024/03/04 08:00:19;;;;;;;65.40;50.40;;;;;;;;;;4973817;28;20221;-79
2024/03/04 08:02:44;;;;;;;62.13;48.87;;;;;;;;;;5007011;28;20218;-78
2024/03/04 08:05:10;;;;;;;62.30;50.10;;;;;;;;;;4973300;28;20290;-79
2024/03/04 08:07:38;;;;;;;59.90;48.40;;;;;;;;;;4960866;28;20213;-79
2024/03/04 08:10:06;;;;;;;59.37;46.80;;;;;;;;;;4973537;28;20220;-79
2024/03/04 08:12:32;;;;;;;54.83;46.77;;;;;;;;;;4958958;28;20664;-79
2024/03/04 08:14:58;;;;;;;56.90;45.97;;;;;;;;;;4958969;28;20214;-79
2024/03/04 08:17:26;;;;;;;54.83;44.53;;;;;;;;;;4989341;28;20229;-79
2024/03/04 08:19:56;;;;;;;53.20;44.30;;;;;;;;;;4977049;28;20217;-79
2024/03/04 08:22:25;;;;;;;49.30;42.10;;;;;;;;;;5005968;28;20287;-80
2024/03/04 08:24:51;;;;;;;52.57;43.00;;;;;;;;;;4974299;28;20308;-80
2024/03/04 08:27:16;;;;;;;44.97;39.53;;;;;;;;;;5009073;28;20953;-80
2024/03/04 08:29:42;;;;;;;43.80;39.13;;;;;;;;;;4995996;28;20224;-81
2024/03/04 08:32:07;;;;;;;42.23;37.67;;;;;;;;;;4957670;28;20221;-80
2024/03/04 08:34:35;;;;;;;40.57;36.30;;;;;;;;;;4958309;28;20320;-79
2024/03/04 08:37:01;;;;;;;40.20;35.83;;;;;;;;;;4987685;28;20233;-79
2024/03/04 08:39:26;;;;;;;40.43;35.57;;;;;;;;;;4972613;28;20263;-78
2024/03/04 08:41:52;;;;;;;38.17;34.13;;;;;;;;;;4958212;28;20232;-78
2024/03/04 08:44:20;;;;;;;38.53;34.60;;;;;;;;;;4991315;28;20213;-79
2024/03/04 08:46:45;;;;;;;40.77;36.47;;;;;;;;;;4975879;28;20228;-80
2024/03/04 08:49:11;;;;;;;41.10;35.80;;;;;;;;;;4976220;28;20225;-79
2024/03/04 08:51:40;;;;;;;43.97;37.23;;;;;;;;;;4956194;28;20234;-79
2024/03/04 08:54:08;;;;;;;45.37;38.20;;;;;;;;;;4958551;28;20275;-79
2024/03/04 08:56:34;;;;;;;41.50;36.97;;;;;;;;;;4972337;28;20328;-79
2024/03/04 08:59:01;;;;;;;42.13;37.50;;;;;;;;;;4987828;28;20237;-79
2024/03/04 09:01:26;;;;;;;42.90;38.27;;;;;;;;;;4971656;28;20279;-79
2024/03/04 09:03:52;;;;;;;44.70;38.90;;;;;;;;;;4973544;28;20222;-80
2024/03/04 09:06:20;;;;;;;45.00;40.07;;;;;;;;;;4956181;28;20654;-78
2024/03/04 09:08:46;;;;;;;47.63;39.97;;;;;;;;;;4957607;28;20225;-78
2024/03/04 09:11:12;;;;;;;44.60;39.70;;;;;;;;;;4983969;28;20221;-78
2024/03/04 09:13:37;;;;;;;43.90;38.37;;;;;;;;;;4971629;28;20786;-78
2024/03/04 09:16:04;;;;;;;43.17;38.47;;;;;;;;;;4969253;28;20247;-78
2024/03/04 09:18:33;;;;;;;44.03;38.87;;;;;;;;;;4957893;28;20225;-79
2024/03/04 09:21:01;;;;;;;43.10;38.13;;;;;;;;;;5005891;28;20214;-80
2024/03/04 09:23:29;;;;;;;43.40;37.73;;;;;;;;;;4956869;28;20604;-78
2024/03/04 09:25:55;;;;;;;41.67;35.90;;;;;;;;;;4989252;28;20304;-79
2024/03/04 09:28:21;;;;;;;39.73;35.53;;;;;;;;;;4988450;28;20233;-79
2024/03/04 09:30:46;;;;;;;39.27;35.17;;;;;;;;;;4991484;28;20225;-79
2024/03/04 09:33:12;;;;;;;38.27;34.07;;;;;;;;;;5006086;28;20319;-79
2024/03/04 09:35:38;;;;;;;39.30;35.03;;;;;;;;;;4990745;28;20226;-80
2024/03/04 09:38:04;;;;;;;39.10;34.93;;;;;;;;;;4991782;28;20694;-77
2024/03/04 09:40:29;;;;;;;39.00;34.07;;;;;;;;;;4956901;28;20231;-79
2024/03/04 09:42:57;;;;;;;37.47;33.50;;;;;;;;;;4989223;28;20213;-79
2024/03/04 09:45:25;;;;;;;37.33;33.37;;;;;;;;;;4955579;28;20287;-79
2024/03/04 09:47:57;;;;;;;36.30;32.43;;;;;;;;;;4974176;28;20224;-79
2024/03/04 09:50:22;;;;;;;36.57;32.33;;;;;;;;;;4989423;28;20218;-79
2024/03/04 09:52:54;;;;;;;36.30;32.37;;;;;;;;;;4976146;28;20225;-79
2024/03/04 09:55:22;;;;;;;34.10;30.60;;;;;;;;;;4982142;28;20226;-79
2024/03/04 09:57:47;;;;;;;34.70;30.90;;;;;;;;;;4973948;28;20224;-79
2024/03/04 10:00:16;;;;;;;33.80;30.37;;;;;;;;;;4960874;28;20229;-80
2024/03/04 10:02:42;;;;;;;34.23;30.70;;;;;;;;;;4977628;28;20218;-79
2024/03/04 10:05:16;;;;;;;34.70;31.00;;;;;;;;;;4944972;28;20221;-78
2024/03/04 10:07:42;;;;;;;33.53;30.07;;;;;;;;;;4977333;28;20231;-80
2024/03/04 10:10:14;;;;;;;35.27;31.47;;;;;;;;;;4976712;28;20225;-78
2024/03/04 10:12:42;;;;;;;36.20;32.33;;;;;;;;;;4961268;28;20217;-78
2024/03/04 10:15:12;;;;;;;35.93;32.03;;;;;;;;;;4995602;28;20288;-79
2024/03/04 10:17:38;;;;;;;36.00;32.20;;;;;;;;;;4984418;28;20581;-81
2024/03/04 10:20:11;;;;;;;35.13;31.37;;;;;;;;;;4965771;28;20296;-79
2024/03/04 10:22:40;;;;;;;36.60;32.60;;;;;;;;;;4979276;28;20229;-79
2024/03/04 10:25:12;;;;;;;37.00;33.00;;;;;;;;;;4968954;28;20218;-80
2024/03/04 10:27:42;;;;;;;38.07;33.93;;;;;;;;;;4993104;28;20400;-80
2024/03/04 10:30:14;;;;;;;38.30;34.10;;;;;;;;;;4978268;28;20252;-80
2024/03/04 10:32:45;;;;;;;36.33;32.20;;;;;;;;;;4975880;28;20233;-79
2024/03/04 10:35:13;;;;;;;38.60;33.93;;;;;;;;;;4976270;28;20265;-80
2024/03/04 10:37:39;;;;;;;37.60;33.60;;;;;;;;;;4996612;28;20237;-79
2024/03/04 10:40:09;;;;;;;36.93;33.07;;;;;;;;;;4965691;28;20221;-79
2024/03/04 10:42:38;;;;;;;34.87;31.07;;;;;;;;;;4965562;28;20233;-80
2024/03/04 10:45:04;;;;;;;37.20;33.07;;;;;;;;;;4981854;28;20209;-79
2024/03/04 10:47:31;;;;;;;37.07;33.10;;;;;;;;;;5012420;28;20307;-79
2024/03/04 10:49:56;;;;;;;36.97;33.00;;;;;;;;;;4960499;28;20260;-79
2024/03/04 10:52:22;;;;;;;36.83;32.93;;;;;;;;;;4990336;28;20927;-78
2024/03/04 10:54:52;;;;;;;38.87;34.70;;;;;;;;;;4958953;28;20221;-79
2024/03/04 10:57:28;;;;;;;39.73;35.43;;;;;;;;;;4977636;28;20221;-78
2024/03/04 10:59:53;;;;;;;41.43;35.60;;;;;;;;;;4988701;28;20247;-79
2024/03/04 11:02:20;;;;;;;40.70;35.50;;;;;;;;;;4993530;28;20337;-80
2024/03/04 11:04:48;;;;;;;40.53;34.77;;;;;;;;;;4948536;28;21037;-79
2024/03/04 11:07:16;;;;;;;39.20;35.00;;;;;;;;;;4991558;28;20279;-79
2024/03/04 11:09:44;;;;;;;39.97;35.77;;;;;;;;;;4974505;28;20278;-79
2024/03/04 11:12:10;;;;;;;39.03;34.63;;;;;;;;;;4983787;28;20608;-78
2024/03/04 11:14:39;;;;;;;38.77;34.57;;;;;;;;;;4976821;28;20232;-79
2024/03/04 11:17:35;;;;;;;38.00;33.87;;;;;;;;;;4977405;28;20226;-79
2024/03/04 11:20:03;;;;;;;41.20;34.73;;;;;;;;;;4962582;28;20295;-79
2024/03/04 11:22:28;;;;;;;38.33;34.13;;;;;;;;;;4991035;28;20221;-79
2024/03/04 11:24:54;;;;;;;38.30;33.47;;;;;;;;;;4956210;28;20224;-79
2024/03/04 11:27:23;;;;;;;37.50;33.10;;;;;;;;;;5007182;28;20233;-79
2024/03/04 11:29:49;;;;;;;38.40;33.43;;;;;;;;;;4992355;28;20210;-78
2024/03/04 11:32:22;;;;;;;38.07;33.87;;;;;;;;;;4991287;28;20248;-79
2024/03/04 11:35:07;;;;;;;36.23;32.33;;;;;;;;;;4992868;28;20607;-78
2024/03/04 11:37:49;;;;;;;37.00;33.07;;;;;;;;;;4979598;28;20260;-80
2024/03/04 11:40:27;;;;;;;36.20;32.40;;;;;;;;;;4991496;28;20245;-78
2024/03/04 11:42:52;;;;;;;36.20;32.30;;;;;;;;;;4977212;28;20213;-78
2024/03/04 11:45:24;;;;;;;37.70;33.60;;;;;;;;;;4973244;28;20738;-78
2024/03/04 11:47:49;;;;;;;37.73;32.60;;;;;;;;;;4977197;28;20333;-79
2024/03/04 11:50:37;;;;;;;38.90;33.50;;;;;;;;;;4948820;28;20220;-79
2024/03/04 11:53:03;;;;;;;37.43;33.40;;;;;;;;;;5007212;28;20233;-77
2024/03/04 11:55:29;;;;;;;39.63;35.40;;;;;;;;;;4990392;28;20248;-79
2024/03/04 11:57:55;;;;;;;37.95;33.83;;;;;;;;;;4988148;28;20222;-80
2024/03/04 12:00:22;;;;;;;38.97;33.93;;;;;;;;;;4993933;28;20220;-80
2024/03/04 12:03:03;;;;;;;38.47;34.00;;;;;;;;;;4979147;28;20221;-81
2024/03/04 12:05:29;;;;;;;37.50;33.00;;;;;;;;;;4956072;28;20250;-80
2024/03/04 12:07:54;;;;;;;38.53;34.33;;;;;;;;;;4942698;28;20300;-81
2024/03/04 12:10:21;;;;;;;38.23;34.10;;;;;;;;;;4951771;28;20225;-79
2024/03/04 12:12:47;;;;;;;39.57;35.03;;;;;;;;;;4948949;28;20227;-79
2024/03/04 12:15:17;;;;;;;40.37;35.00;;;;;;;;;;4994874;28;20221;-80
2024/03/04 12:17:43;;;;;;;42.27;36.77;;;;;;;;;;4978372;28;20699;-80
2024/03/04 12:20:08;;;;;;;40.77;35.93;;;;;;;;;;4995126;28;20225;-80
2024/03/04 12:22:40;;;;;;;43.03;37.60;;;;;;;;;;4979129;28;20236;-80
2024/03/04 12:25:07;;;;;;;42.17;37.53;;;;;;;;;;4974226;28;20253;-79
2024/03/04 12:27:33;;;;;;;43.53;37.43;;;;;;;;;;4977943;28;20652;-79
2024/03/04 12:30:14;;;;;;;42.23;37.60;;;;;;;;;;4994615;28;20281;-80
2024/03/04 12:32:42;;;;;;;44.47;37.40;;;;;;;;;;4989383;28;20234;-78
2024/03/04 12:35:32;;;;;;;44.07;38.03;;;;;;;;;;4987045;28;20225;-80
2024/03/04 12:38:01;;;;;;;43.50;38.00;;;;;;;;;;4977267;28;20304;-78
2024/03/04 12:40:27;;;;;;;45.87;38.93;;;;;;;;;;4991390;28;20236;-80
2024/03/04 12:43:03;;;;;;;44.07;38.33;;;;;;;;;;4976507;28;20217;-80
2024/03/04 12:45:31;;;;;;;43.60;37.23;;;;;;;;;;4974857;28;20229;-79
2024/03/04 12:48:00;;;;;;;44.23;37.63;;;;;;;;;;4959441;28;20304;-80
2024/03/04 12:50:27;;;;;;;43.67;38.20;;;;;;;;;;4975066;28;20940;-80
2024/03/04 12:52:53;;;;;;;44.30;38.00;;;;;;;;;;4975902;28;20233;-79
2024/03/04 12:55:19;;;;;;;42.43;36.97;;;;;;;;;;4991971;28;20237;-80
2024/03/04 12:57:45;;;;;;;41.60;36.63;;;;;;;;;;4959489;28;20251;-79
2024/03/04 13:00:13;;;;;;;42.70;38.00;;;;;;;;;;4975068;28;20210;-79
2024/03/04 13:02:45;;;;;;;44.97;38.53;;;;;;;;;;4962356;28;20229;-80
2024/03/04 13:05:10;;;;;;;43.33;36.97;;;;;;;;;;4977698;28;20221;-78
2024/03/04 13:07:39;;;;;;;43.20;37.10;;;;;;;;;;4993573;28;20227;-78
2024/03/04 13:10:06;;;;;;;43.07;38.43;;;;;;;;;;4974129;28;20226;-78
2024/03/04 13:12:42;;;;;;;42.97;35.97;;;;;;;;;;4985971;28;20613;-79
2024/03/04 13:15:08;;;;;;;41.67;36.43;;;;;;;;;;4973088;28;20213;-80
2024/03/04 13:17:34;;;;;;;43.07;36.67;;;;;;;;;;4971429;28;20237;-79
2024/03/04 13:20:01;;;;;;;40.87;35.57;;;;;;;;;;4989748;28;20213;-78
2024/03/04 13:22:26;;;;;;;42.57;35.90;;;;;;;;;;4973225;28;20283;-79
2024/03/04 13:24:52;;;;;;;40.83;36.17;;;;;;;;;;4994340;28;20210;-78
2024/03/04 13:27:23;;;;;;;42.40;35.83;;;;;;;;;;4978164;28;20228;-79
2024/03/04 13:29:51;;;;;;;40.40;35.00;;;;;;;;;;4962656;28;20233;-79
2024/03/04 13:32:17;;;;;;;42.73;36.23;;;;;;;;;;4978226;28;20230;-79
2024/03/04 13:34:43;;;;;;;40.17;34.50;;;;;;;;;;4966274;28;20229;-79
2024/03/04 13:37:11;;;;;;;38.50;33.87;;;;;;;;;;4981412;28;20223;-79
2024/03/04 13:39:37;;;;;;;39.73;35.23;;;;;;;;;;4998737;28;20221;-79
2024/03/04 13:42:05;;;;;;;41.60;35.77;;;;;;;;;;4979917;28;20739;-78
2024/03/04 13:44:30;;;;;;;42.13;35.57;;;;;;;;;;4980082;28;20920;-79
2024/03/04 13:46:56;;;;;;;39.90;35.60;;;;;;;;;;4997530;28;20213;-78
2024/03/04 13:49:22;;;;;;;43.67;35.23;;;;;;;;;;4951923;28;20857;-78
2024/03/04 13:51:49;;;;;;;40.97;35.80;;;;;;;;;;4951307;28;20253;-78
2024/03/04 13:54:18;;;;;;;42.77;36.00;;;;;;;;;;5014377;28;20308;-78
2024/03/04 13:56:43;;;;;;;40.87;34.67;;;;;;;;;;4982457;28;20307;-78
2024/03/04 13:59:11;;;;;;;42.40;36.23;;;;;;;;;;4982671;28;20218;-79
2024/03/04 14:01:37;;;;;;;43.87;35.73;;;;;;;;;;4965023;28;20233;-80
2024/03/04 14:04:06;;;;;;;40.17;35.80;;;;;;;;;;4980231;28;20717;-78
2024/03/04 14:06:31;;;;;;;40.93;35.27;;;;;;;;;;4965532;28;20238;-77
2024/03/04 14:09:00;;;;;;;38.03;33.93;;;;;;;;;;4965905;28;20225;-79
2024/03/04 14:11:26;;;;;;;40.90;34.60;;;;;;;;;;4966245;28;20221;-80
2024/03/04 14:13:51;;;;;;;38.60;33.67;;;;;;;;;;4965351;28;20240;-78
2024/03/04 14:16:17;;;;;;;38.13;33.33;;;;;;;;;;4998064;28;20299;-79
2024/03/04 14:18:42;;;;;;;38.77;34.37;;;;;;;;;;4998620;28;20244;-78
2024/03/04 14:21:08;;;;;;;38.30;34.23;;;;;;;;;;4980232;28;20671;-78
2024/03/04 14:23:34;;;;;;;36.40;32.50;;;;;;;;;;4963180;28;20229;-78